createdAt,value
2018-05-25T00:00:01.000Z,1010.946
2018-05-25T00:10:01.000Z,1010.97
2018-05-25T00:20:01.000Z,1010.95
2018-05-25T00:30:01.000Z,1010.949
2018-05-25T00:40:01.000Z,1010.908
2018-05-25T00:50:01.000Z,1010.87
2018-05-25T01:00:01.000Z,1010.849
2018-05-25T01:10:01.000Z,1010.779
2018-05-25T01:20:01.000Z,1010.791
2018-05-25T01:30:01.000Z,1010.792
2018-05-25T01:40:02.000Z,1010.727
2018-05-25T01:50:02.000Z,1010.665
2018-05-25T02:00:02.000Z,1010.605
2018-05-25T02:10:02.000Z,1010.579
2018-05-25T02:20:02.000Z,1010.638
2018-05-25T02:30:02.000Z,1010.585
2018-05-25T02:40:02.000Z,1010.56
2018-05-25T02:50:02.000Z,1010.572
2018-05-25T03:00:02.000Z,1010.598
2018-05-25T03:10:02.000Z,1010.616
2018-05-25T03:20:02.000Z,1010.591
2018-05-25T03:30:02.000Z,1010.525
2018-05-25T03:40:02.000Z,1010.511
2018-05-25T03:50:02.000Z,1010.578
2018-05-25T04:00:02.000Z,1010.595
2018-05-25T04:10:02.000Z,1010.573
2018-05-25T04:20:02.000Z,1010.62
2018-05-25T04:30:02.000Z,1010.592
2018-05-25T04:40:02.000Z,1010.648
2018-05-25T04:50:02.000Z,1010.777
2018-05-25T05:00:02.000Z,1010.912
2018-05-25T05:10:02.000Z,1010.958
2018-05-25T05:20:02.000Z,1011
2018-05-25T05:30:02.000Z,1011.014
2018-05-25T05:40:02.000Z,1010.988
2018-05-25T05:50:02.000Z,1010.98
2018-05-25T06:00:02.000Z,1011.034
2018-05-25T06:10:02.000Z,1011.061
2018-05-25T06:20:02.000Z,1011.102
2018-05-25T06:30:02.000Z,1011.075
2018-05-25T06:40:02.000Z,1011.187
2018-05-25T06:50:02.000Z,1011.212
2018-05-25T07:00:04.000Z,1011.309
2018-05-25T07:10:02.000Z,1011.324
2018-05-25T07:20:02.000Z,1011.249
2018-05-25T07:30:02.000Z,1011.335
2018-05-25T07:40:02.000Z,1011.349
2018-05-25T07:50:02.000Z,1011.396
2018-05-25T08:00:02.000Z,1011.408
2018-05-25T08:10:02.000Z,1011.356
2018-05-25T08:20:02.000Z,1011.406
2018-05-25T08:30:03.000Z,1011.49
2018-05-25T08:40:02.000Z,1011.499
2018-05-25T08:50:02.000Z,1011.495
2018-05-25T09:10:06.000Z,1011.522
2018-05-25T09:20:02.000Z,1011.631
2018-05-25T09:30:02.000Z,1011.711
2018-05-25T09:40:02.000Z,1011.703
2018-05-25T09:50:02.000Z,1011.623
2018-05-25T10:00:03.000Z,1011.569
2018-05-25T10:10:03.000Z,1011.536
2018-05-25T10:20:03.000Z,1011.567
2018-05-25T10:30:03.000Z,1011.575
2018-05-25T10:40:03.000Z,1011.506
2018-05-25T10:50:03.000Z,1011.412
2018-05-25T11:00:03.000Z,1011.427
2018-05-25T11:10:03.000Z,1011.349
2018-05-25T11:30:03.000Z,1011.289
2018-05-25T11:40:03.000Z,1011.189
2018-05-25T11:50:03.000Z,1011.165
2018-05-25T12:00:03.000Z,1011.118
2018-05-25T12:10:03.000Z,1011.105
2018-05-25T12:20:03.000Z,1011.146
2018-05-25T12:30:03.000Z,1011.104
2018-05-25T12:40:03.000Z,1011.05
2018-05-25T12:50:03.000Z,1011.001
2018-05-25T13:00:03.000Z,1011.106
2018-05-25T13:10:03.000Z,1011.2
2018-05-25T13:20:04.000Z,1011.171
2018-05-25T13:30:03.000Z,1011.15
2018-05-25T13:40:03.000Z,1010.972
2018-05-25T13:50:03.000Z,1011.05
2018-05-25T14:00:03.000Z,1011.018
2018-05-25T14:10:03.000Z,1011.077
2018-05-25T14:20:03.000Z,1011.09
2018-05-25T14:30:03.000Z,1011.12
2018-05-25T14:40:07.000Z,1011.187
2018-05-25T14:50:03.000Z,1011.147
2018-05-25T15:00:03.000Z,1011.121
2018-05-25T15:10:03.000Z,1011.08
2018-05-25T15:20:03.000Z,1011.089
2018-05-25T15:30:05.000Z,1011.135
2018-05-25T15:40:03.000Z,1011.071
2018-05-25T15:50:03.000Z,1011.014
2018-05-25T16:00:03.000Z,1010.951
2018-05-25T16:10:03.000Z,1010.914
2018-05-25T16:20:03.000Z,1010.9
2018-05-25T16:30:03.000Z,1010.913
2018-05-25T16:40:03.000Z,1010.864
2018-05-25T16:50:03.000Z,1010.891
2018-05-25T17:00:03.000Z,1010.869
2018-05-25T17:10:03.000Z,1010.741
2018-05-25T17:20:03.000Z,1010.709
2018-05-25T17:30:03.000Z,1010.717
2018-05-25T17:40:04.000Z,1010.757
2018-05-25T17:50:03.000Z,1010.82
2018-05-25T18:00:04.000Z,1010.81
2018-05-25T18:10:04.000Z,1010.926
2018-05-25T18:20:04.000Z,1011.029
2018-05-25T18:30:04.000Z,1011.078
2018-05-25T18:40:04.000Z,1011.161
2018-05-25T18:50:04.000Z,1011.18
2018-05-25T19:00:04.000Z,1011.216
2018-05-25T19:10:04.000Z,1011.281
2018-05-25T19:20:04.000Z,1011.381
2018-05-25T19:30:04.000Z,1011.456
2018-05-25T19:40:04.000Z,1011.518
2018-05-25T19:50:04.000Z,1011.619
2018-05-25T20:10:04.000Z,1011.721
2018-05-25T20:20:06.000Z,1011.732
2018-05-25T20:30:07.000Z,1011.708
2018-05-25T20:40:04.000Z,1011.73
2018-05-25T20:50:04.000Z,1011.656
2018-05-25T21:00:04.000Z,1011.646
2018-05-25T21:10:05.000Z,1011.732
2018-05-25T21:20:04.000Z,1011.771
2018-05-25T21:30:04.000Z,1011.792
2018-05-25T21:40:04.000Z,1011.8
2018-05-25T21:50:04.000Z,1011.849
2018-05-25T22:00:06.000Z,1011.848
2018-05-25T22:10:04.000Z,1011.868
2018-05-25T22:20:05.000Z,1011.948
2018-05-25T22:30:04.000Z,1011.985
2018-05-25T22:40:04.000Z,1012.058
2018-05-25T22:50:04.000Z,1012.132
2018-05-25T23:00:04.000Z,1012.163
2018-05-25T23:10:05.000Z,1012.178
2018-05-25T23:20:04.000Z,1012.142
2018-05-25T23:30:08.000Z,1012.094
2018-05-25T23:40:04.000Z,1012.123
2018-05-25T23:50:04.000Z,1012.155
